Current | Forecast
Updated: 7:00 AM JST on April 28, 2017
Observed at Hakodate Airport, Japan
Temperature 50°F
Humidity 66%
Dew Point 39°F
Wind West at 8 mph
Pressure 29.62 in (Rising)
Conditions Partly Cloudy
Visibility 6.2 miles
UV 2 out of 16
Clouds (FEW) : 3000 ft
Yesterday's Maximum 57°F
Yesterday's Minimum 46°F approx.
Yesterday's Heating Degree Days 13 approx.
Sunrise4:35 AM JST
Sunset6:28 PM JST
Moon Rise6:01 AM JST
Moon Set8:27 PM JST
Moon PhaseMoon Phase
Waxing Crescent
Raw METARMETAR RJCH 272200Z 28007KT 9999 FEW030 10/04 Q1003


Monday
. High: 56° F.
Tuesday
. High: 57° F.
Wednesday
. High: 57° F.
Thursday
. High: 57° F.
Friday
. High: 57° F.
Saturday
. High: 57° F.
Sunday
. High: 55° F.
Monday
. High: 55° F.

Units: English | Metric

Find the Weather for any City, State or Zipcode, or Country:

U.S. State List | Severe Weather | Tropical Storms | Ski Conditions
United States | Canada | Central America | South America | Asia | Europe | Australia | Africa | Islands

Weather Underground

© Copyright 2017
The Weather Company, LLC